Time;durP1;ratioP1;P1;durP2;ratioP2;P2;SDS_P1;SDS_P2;PMS_P1;PMS_P2;Temp;Humidity;BMP_temperature;BMP_pressure;BME280_temperature;BME280_humidity;BME280_pressure;Samples;Min_cycle;Max_cycle;Signal;HPM_P1;HPM_P2
2023/07/24 00:02:09;;;;;;;14.80;6.57;;;17.50;99.90;;;;;;5096684;28;20093;-62
2023/07/24 00:04:35;;;;;;;15.38;6.10;;;17.50;99.90;;;;;;5096138;28;20050;-62
2023/07/24 00:07:01;;;;;;;13.18;5.55;;;17.40;99.90;;;;;;5094027;28;20058;-61
2023/07/24 00:09:27;;;;;;;8.20;5.03;;;17.40;99.90;;;;;;5096302;28;20039;-61
2023/07/24 00:11:52;;;;;;;11.82;5.70;;;17.40;99.90;;;;;;5096084;28;20438;-61
2023/07/24 00:14:18;;;;;;;10.68;4.70;;;17.30;99.90;;;;;;5094239;28;20040;-61
2023/07/24 00:16:44;;;;;;;11.75;5.45;;;17.30;99.90;;;;;;5095646;28;20036;-61
2023/07/24 00:19:10;;;;;;;12.68;5.72;;;17.30;99.90;;;;;;5096117;28;20028;-61
2023/07/24 00:21:35;;;;;;;11.07;5.50;;;17.30;99.90;;;;;;5093923;28;20039;-60
2023/07/24 00:24:01;;;;;;;11.25;5.20;;;17.30;99.90;;;;;;5095619;28;20455;-61
2023/07/24 00:26:27;;;;;;;10.65;5.18;;;17.30;99.90;;;;;;5096104;28;20446;-61
2023/07/24 00:28:52;;;;;;;12.70;5.55;;;17.30;99.90;;;;;;5127749;27;20119;-61
2023/07/24 00:31:18;;;;;;;11.52;5.32;;;17.30;99.90;;;;;;5128862;27;20416;-61
2023/07/24 00:33:43;;;;;;;10.57;4.88;;;17.30;99.90;;;;;;5128280;27;20044;-61
2023/07/24 00:36:09;;;;;;;10.85;4.95;;;17.30;99.90;;;;;;5095047;28;20395;-61
2023/07/24 00:38:35;;;;;;;11.15;5.25;;;17.30;99.90;;;;;;5095628;28;20397;-61
2023/07/24 00:41:00;;;;;;;10.60;4.68;;;17.30;99.90;;;;;;5095356;28;20048;-61
2023/07/24 00:43:29;;;;;;;9.93;4.70;;;17.20;99.90;;;;;;5127874;27;20036;-61
2023/07/24 00:45:56;;;;;;;14.32;4.93;;;17.20;99.90;;;;;;5095209;28;20067;-61
2023/07/24 00:48:22;;;;;;;9.32;5.40;;;17.20;99.90;;;;;;5093603;28;20044;-61
2023/07/24 00:50:49;;;;;;;10.10;4.78;;;17.10;99.90;;;;;;5094880;28;20055;-61
2023/07/24 00:53:17;;;;;;;10.40;4.65;;;17.10;99.90;;;;;;5077095;28;20119;-61
2023/07/24 00:55:43;;;;;;;12.90;5.28;;;17.10;99.90;;;;;;5094010;28;20046;-61
2023/07/24 00:58:11;;;;;;;10.43;4.82;;;17.00;99.90;;;;;;5095313;28;20032;-61
2023/07/24 01:00:38;;;;;;;13.95;4.80;;;17.00;99.90;;;;;;5093811;28;20089;-61
2023/07/24 01:03:04;;;;;;;11.25;5.22;;;17.00;99.90;;;;;;5092925;28;20051;-61
2023/07/24 01:05:30;;;;;;;12.80;5.43;;;17.00;99.90;;;;;;5093997;28;20032;-61
2023/07/24 01:07:55;;;;;;;11.00;5.65;;;17.00;99.90;;;;;;5093842;28;20040;-61
2023/07/24 01:10:21;;;;;;;12.27;6.30;;;16.90;99.90;;;;;;5094360;28;20078;-61
2023/07/24 01:13:08;;;;;;;13.40;6.07;;;16.90;99.90;;;;;;5127575;27;20623;-60
2023/07/24 01:15:51;;;;;;;12.55;6.28;;;16.90;99.90;;;;;;5076560;28;20044;-60
2023/07/24 01:18:18;;;;;;;12.50;6.22;;;16.80;99.90;;;;;;5093036;28;20492;-61
2023/07/24 01:20:51;;;;;;;11.32;5.95;;;16.80;99.90;;;;;;5094163;28;20463;-61
2023/07/24 01:23:40;;;;;;;13.73;7.18;;;16.80;99.90;;;;;;5095137;28;20058;-61
2023/07/24 01:26:07;;;;;;;11.38;6.70;;;16.90;99.90;;;;;;5127865;27;20043;-61
2023/07/24 01:28:33;;;;;;;15.00;6.13;;;16.90;99.90;;;;;;5076505;28;20047;-61
2023/07/24 01:30:59;;;;;;;15.02;6.68;;;16.80;99.90;;;;;;5093728;28;20513;-61
2023/07/24 01:33:25;;;;;;;18.52;7.95;;;16.80;99.90;;;;;;5094501;28;20047;-61
2023/07/24 01:35:55;;;;;;;13.35;7.60;;;16.80;99.90;;;;;;5093154;28;20071;-61
2023/07/24 01:38:23;;;;;;;14.45;7.55;;;16.80;99.90;;;;;;5093761;28;20036;-61
2023/07/24 01:40:51;;;;;;;14.55;7.32;;;16.80;99.90;;;;;;5094013;28;20040;-61
2023/07/24 01:43:17;;;;;;;13.35;6.30;;;16.80;99.90;;;;;;5127507;27;20081;-62
2023/07/24 01:45:42;;;;;;;10.18;6.28;;;16.90;99.90;;;;;;5093135;28;20076;-61
2023/07/24 01:48:08;;;;;;;14.95;6.80;;;16.90;99.90;;;;;;5094306;28;20032;-61
2023/07/24 01:50:34;;;;;;;13.00;6.63;;;17.00;99.90;;;;;;5126849;27;20064;-61
2023/07/24 01:52:59;;;;;;;15.57;7.00;;;17.00;99.90;;;;;;5093164;28;20048;-61
2023/07/24 01:55:25;;;;;;;13.07;6.50;;;17.00;99.90;;;;;;5094467;28;20123;-61
2023/07/24 01:57:51;;;;;;;13.02;5.95;;;17.00;99.90;;;;;;5093598;28;20485;-61
2023/07/24 02:00:16;;;;;;;13.27;6.53;;;17.00;99.90;;;;;;5093336;28;20043;-61
2023/07/24 02:02:42;;;;;;;10.88;6.15;;;17.00;99.90;;;;;;5093505;28;20472;-61
2023/07/24 02:05:08;;;;;;;15.30;6.80;;;17.00;99.90;;;;;;5075719;28;20043;-61
2023/07/24 02:07:34;;;;;;;13.85;6.63;;;17.10;99.90;;;;;;5093208;28;20036;-61
2023/07/24 02:09:59;;;;;;;13.05;6.78;;;17.10;99.90;;;;;;5092712;28;20044;-61
2023/07/24 02:12:25;;;;;;;16.77;7.60;;;17.10;99.90;;;;;;5076205;28;20047;-61
2023/07/24 02:14:51;;;;;;;14.45;6.97;;;17.10;99.90;;;;;;5092407;28;20511;-61
2023/07/24 02:17:18;;;;;;;14.75;6.40;;;17.10;99.90;;;;;;5092622;28;20097;-61
2023/07/24 02:19:44;;;;;;;12.93;6.95;;;17.10;99.90;;;;;;5091435;28;20037;-61
2023/07/24 02:22:10;;;;;;;14.68;7.20;;;17.10;99.90;;;;;;5092632;28;20040;-61
2023/07/24 02:24:35;;;;;;;16.20;7.05;;;17.10;99.90;;;;;;5093596;28;20388;-61
2023/07/24 02:27:01;;;;;;;14.30;6.90;;;17.20;99.90;;;;;;5092604;28;20036;-62
2023/07/24 02:29:27;;;;;;;16.90;7.90;;;17.10;99.90;;;;;;5093353;28;20036;-61
2023/07/24 02:31:54;;;;;;;12.52;6.70;;;17.10;99.90;;;;;;5092123;28;20043;-61
2023/07/24 02:34:24;;;;;;;14.20;7.18;;;17.10;99.90;;;;;;5093041;28;20036;-61
2023/07/24 02:36:50;;;;;;;13.38;7.30;;;17.20;99.90;;;;;;5074834;28;20507;-61
2023/07/24 02:39:16;;;;;;;14.48;6.93;;;17.20;99.90;;;;;;5075398;28;20047;-61
2023/07/24 02:41:50;;;;;;;13.70;6.53;;;17.20;99.90;;;;;;5092049;28;20055;-62
2023/07/24 02:44:16;;;;;;;;;;;17.20;99.90;;;;;;5092484;28;20078;-61
2023/07/24 02:46:42;;;;;;;19.27;6.55;;;17.20;99.90;;;;;;5091555;28;19924;-61
2023/07/24 02:49:07;;;;;;;14.95;7.60;;;17.10;99.90;;;;;;5074101;28;20039;-62
2023/07/24 02:51:33;;;;;;;15.75;7.60;;;17.20;99.90;;;;;;5091591;28;20087;-62
2023/07/24 02:53:59;;;;;;;20.80;8.13;;;17.10;99.90;;;;;;5091935;28;20852;-61
2023/07/24 02:56:24;;;;;;;13.63;7.72;;;17.20;99.90;;;;;;5091093;28;20048;-62
2023/07/24 02:58:50;;;;;;;13.93;7.55;;;17.20;99.90;;;;;;5092238;28;20040;-60
2023/07/24 03:01:16;;;;;;;16.38;7.30;;;17.20;99.90;;;;;;5092880;28;20040;-61
2023/07/24 03:03:42;;;;;;;14.20;7.32;;;17.20;99.90;;;;;;5090406;28;20044;-61
2023/07/24 03:06:07;;;;;;;12.18;6.95;;;17.10;99.90;;;;;;5091945;28;20039;-61
2023/07/24 03:08:33;;;;;;;18.45;7.85;;;17.20;99.90;;;;;;5092783;28;20036;-61
2023/07/24 03:11:00;;;;;;;14.20;6.97;;;17.10;99.90;;;;;;5091919;28;20810;-61
2023/07/24 03:13:25;;;;;;;13.48;7.80;;;17.20;99.90;;;;;;5091564;28;20044;-61
2023/07/24 03:15:53;;;;;;;11.63;6.57;;;17.10;99.90;;;;;;5092464;28;20043;-61
2023/07/24 03:18:18;;;;;;;17.35;7.57;;;17.20;99.90;;;;;;5090906;28;20067;-61
2023/07/24 03:20:44;;;;;;;12.75;6.55;;;17.10;99.90;;;;;;5092253;28;20498;-62
2023/07/24 03:23:09;;;;;;;15.80;6.60;;;17.20;99.90;;;;;;5091928;28;20396;-61
2023/07/24 03:25:35;;;;;;;13.20;6.05;;;17.10;99.90;;;;;;5091251;28;20040;-61
2023/07/24 03:28:02;;;;;;;12.63;6.32;;;17.20;99.90;;;;;;5092321;28;20036;-61
2023/07/24 03:30:28;;;;;;;14.63;6.40;;;17.20;99.90;;;;;;5091346;28;20044;-60
2023/07/24 03:32:53;;;;;;;15.15;6.82;;;17.20;99.90;;;;;;5092521;28;20461;-61
2023/07/24 03:35:19;;;;;;;13.55;6.65;;;17.20;99.90;;;;;;5091502;28;20044;-61
2023/07/24 03:37:45;;;;;;;13.65;6.03;;;17.20;99.90;;;;;;5090293;28;20509;-61
2023/07/24 03:40:11;;;;;;;11.85;5.70;;;17.20;99.90;;;;;;5091260;28;20036;-61
2023/07/24 03:42:37;;;;;;;14.40;7.00;;;17.20;99.90;;;;;;5090749;28;20493;-61
2023/07/24 03:45:03;;;;;;;11.15;7.00;;;17.20;99.90;;;;;;5090143;28;20032;-61
2023/07/24 03:47:29;;;;;;;15.05;7.32;;;17.20;99.90;;;;;;5092139;28;20424;-61
2023/07/24 03:49:55;;;;;;;12.82;6.13;;;17.20;99.90;;;;;;5092098;28;20077;-62
2023/07/24 03:52:21;;;;;;;12.85;5.50;;;17.20;99.90;;;;;;5090464;28;20438;-61
2023/07/24 03:54:46;;;;;;;16.50;5.70;;;17.20;99.90;;;;;;5090436;28;20044;-61
2023/07/24 03:57:12;;;;;;;13.45;6.60;;;17.20;99.90;;;;;;5092170;28;20039;-61
2023/07/24 03:59:38;;;;;;;13.88;5.82;;;17.30;99.90;;;;;;5089770;28;20044;-61
2023/07/24 04:02:04;;;;;;;11.77;6.15;;;17.20;99.90;;;;;;5090770;28;20043;-61
2023/07/24 04:04:30;;;;;;;10.60;6.28;;;17.30;99.90;;;;;;5091087;28;20102;-61
2023/07/24 04:06:56;;;;;;;11.35;5.50;;;17.30;99.90;;;;;;5090072;28;20044;-61
2023/07/24 04:09:22;;;;;;;12.70;5.88;;;17.30;99.90;;;;;;5090967;28;20040;-62
2023/07/24 04:11:47;;;;;;;11.93;4.80;;;17.30;99.90;;;;;;5089947;28;20036;-61
2023/07/24 04:14:13;;;;;;;11.82;5.22;;;17.30;99.90;;;;;;5091538;28;20040;-62
2023/07/24 04:16:39;;;;;;;13.88;5.32;;;17.20;99.90;;;;;;5091889;28;20032;-62
2023/07/24 04:19:05;;;;;;;11.27;5.25;;;17.30;99.90;;;;;;5074070;28;20097;-62
2023/07/24 04:21:31;;;;;;;10.93;5.00;;;17.30;99.90;;;;;;5089628;28;20097;-62
2023/07/24 04:23:56;;;;;;;12.75;5.10;;;17.30;99.90;;;;;;5090623;28;20401;-62
2023/07/24 04:26:22;;;;;;;12.70;4.88;;;17.30;99.90;;;;;;5090204;28;20043;-62
2023/07/24 04:28:48;;;;;;;11.45;5.55;;;17.30;99.90;;;;;;5090257;28;20036;-62
2023/07/24 04:31:13;;;;;;;12.52;6.00;;;17.30;99.90;;;;;;5092263;28;20040;-62
2023/07/24 04:33:39;;;;;;;15.13;6.63;;;17.30;99.90;;;;;;5090816;28;20588;-62
2023/07/24 04:36:05;;;;;;;12.00;5.75;;;17.30;99.90;;;;;;5091777;28;20042;-62
2023/07/24 04:38:31;;;;;;;13.80;5.30;;;17.30;99.90;;;;;;5091636;28;20047;-62
2023/07/24 04:40:56;;;;;;;12.95;5.60;;;17.40;99.90;;;;;;5072918;28;20480;-62
2023/07/24 04:43:22;;;;;;;9.80;5.15;;;17.40;99.90;;;;;;5095922;28;20031;-62
2023/07/24 04:45:48;;;;;;;9.52;4.88;;;17.30;99.90;;;;;;5128292;27;20473;-62
2023/07/24 04:48:13;;;;;;;10.55;5.53;;;17.40;99.90;;;;;;5127737;27;20485;-62
2023/07/24 04:50:39;;;;;;;13.32;6.13;;;17.40;99.90;;;;;;5094053;28;20186;-62
2023/07/24 04:53:05;;;;;;;14.38;6.82;;;17.30;99.90;;;;;;5095462;28;20052;-62
2023/07/24 04:55:30;;;;;;;13.48;5.20;;;17.40;99.90;;;;;;5094431;28;20051;-62
2023/07/24 04:57:56;;;;;;;12.38;5.70;;;17.40;99.90;;;;;;5128064;27;20101;-62
2023/07/24 05:00:22;;;;;;;13.63;5.63;;;17.40;99.90;;;;;;5095551;28;20105;-62
2023/07/24 05:02:47;;;;;;;14.65;5.65;;;17.40;99.90;;;;;;5094027;28;20055;-62
2023/07/24 05:05:13;;;;;;;11.80;5.22;;;17.40;99.90;;;;;;5095385;28;20085;-62
2023/07/24 05:07:39;;;;;;;11.30;5.80;;;17.40;99.90;;;;;;5110373;28;20044;-62
2023/07/24 05:10:05;;;;;;;10.00;4.55;;;17.40;99.90;;;;;;5094246;28;20040;-62
2023/07/24 05:12:31;;;;;;;11.02;4.82;;;17.40;99.90;;;;;;5095179;28;20393;-62
2023/07/24 05:14:56;;;;;;;9.98;4.63;;;17.40;99.90;;;;;;5094900;28;20044;-62
2023/07/24 05:17:22;;;;;;;13.60;5.63;;;17.40;99.90;;;;;;5094307;28;20089;-62
2023/07/24 05:19:48;;;;;;;19.50;6.07;;;17.40;99.90;;;;;;5094346;28;20079;-62
2023/07/24 05:22:13;;;;;;;12.18;5.68;;;17.50;99.90;;;;;;5095038;28;20082;-62
2023/07/24 05:24:39;;;;;;;10.75;5.20;;;17.50;99.90;;;;;;5090811;28;20065;-63
2023/07/24 05:27:06;;;;;;;16.45;5.28;;;17.40;99.90;;;;;;5093090;28;20060;-63
2023/07/24 05:29:33;;;;;;;18.88;6.10;;;17.50;99.90;;;;;;5076472;28;20424;-63
2023/07/24 05:31:59;;;;;;;13.43;5.78;;;17.40;99.90;;;;;;5075987;28;20094;-64
2023/07/24 05:34:25;;;;;;;11.18;5.25;;;17.40;99.90;;;;;;5070711;28;20044;-63
2023/07/24 05:36:52;;;;;;;12.27;5.18;;;17.40;99.90;;;;;;5072969;28;20542;-63
2023/07/24 05:39:18;;;;;;;12.77;5.05;;;17.40;99.90;;;;;;5092064;28;20048;-63
2023/07/24 05:41:44;;;;;;;17.77;6.03;;;17.40;99.90;;;;;;5091096;28;20036;-63
2023/07/24 05:44:10;;;;;;;12.15;5.15;;;17.40;99.90;;;;;;5090739;28;20127;-64
2023/07/24 05:46:36;;;;;;;12.23;5.68;;;17.40;99.90;;;;;;5091332;28;20043;-64
2023/07/24 05:49:02;;;;;;;15.38;5.80;;;17.40;99.90;;;;;;5089636;28;20055;-64
2023/07/24 06:29:02;;;;;;;12.80;5.63;;;18.00;99.90;;;;;;5083615;28;20031;-64
2023/07/24 06:31:29;;;;;;;18.60;6.57;;;18.10;99.90;;;;;;5089115;28;20052;-63
2023/07/24 06:33:55;;;;;;;15.77;6.18;;;18.20;99.90;;;;;;5088976;28;20056;-63
2023/07/24 06:36:21;;;;;;;11.77;5.43;;;18.20;99.90;;;;;;5088929;28;20127;-63
2023/07/24 06:38:47;;;;;;;11.77;5.97;;;18.30;99.90;;;;;;5088674;28;20047;-64
2023/07/24 06:41:19;;;;;;;12.75;5.63;;;18.30;99.90;;;;;;5088605;28;20082;-64
2023/07/24 06:43:46;;;;;;;11.35;4.93;;;18.40;99.90;;;;;;5086523;28;20048;-64
2023/07/24 06:46:12;;;;;;;12.05;5.57;;;18.40;99.90;;;;;;5090545;28;20101;-64
2023/07/24 06:48:38;;;;;;;10.48;5.65;;;18.50;99.90;;;;;;5087509;28;20499;-64
2023/07/24 06:51:04;;;;;;;18.50;6.53;;;18.60;99.90;;;;;;5089871;28;20052;-64
2023/07/24 06:53:30;;;;;;;10.73;5.65;;;18.60;99.90;;;;;;5090376;28;20095;-64
2023/07/24 06:55:56;;;;;;;13.70;5.28;;;18.60;99.90;;;;;;5088046;28;20136;-64
2023/07/24 06:58:22;;;;;;;13.63;5.40;;;18.70;99.90;;;;;;5088911;28;20044;-64
2023/07/24 07:00:48;;;;;;;12.18;6.20;;;18.80;99.90;;;;;;5089255;28;20036;-64
2023/07/24 07:03:14;;;;;;;16.25;6.45;;;18.80;99.90;;;;;;5087647;28;20048;-64
2023/07/24 07:05:40;;;;;;;12.27;5.03;;;18.80;99.90;;;;;;5088459;28;20180;-64
2023/07/24 07:08:06;;;;;;;19.05;5.93;;;18.90;99.90;;;;;;5087628;28;20126;-63
2023/07/24 07:10:32;;;;;;;13.70;6.00;;;18.90;99.90;;;;;;5088860;28;20216;-64
2023/07/24 07:12:58;;;;;;;13.38;5.78;;;18.90;99.90;;;;;;5088964;28;20039;-64
2023/07/24 07:15:24;;;;;;;13.52;6.10;;;18.90;99.90;;;;;;5088667;28;20054;-64
2023/07/24 07:17:50;;;;;;;13.45;6.20;;;18.90;99.90;;;;;;5070750;28;20148;-64
2023/07/24 07:20:16;;;;;;;10.07;5.50;;;18.90;99.90;;;;;;5107554;28;20470;-63
2023/07/24 07:22:41;;;;;;;10.35;5.75;;;18.90;99.90;;;;;;5092103;28;20043;-63
2023/07/24 07:25:07;;;;;;;14.45;6.40;;;18.90;99.90;;;;;;5122875;27;20040;-63
2023/07/24 07:27:33;;;;;;;18.08;6.72;;;18.90;99.90;;;;;;5089177;28;20028;-63
2023/07/24 07:29:59;;;;;;;16.90;6.90;;;19.00;99.90;;;;;;5088167;28;20051;-63
2023/07/24 07:32:24;;;;;;;10.68;6.40;;;19.00;99.90;;;;;;5089071;28;20504;-63
2023/07/24 07:34:50;;;;;;;17.05;7.25;;;19.10;99.90;;;;;;5088853;28;20431;-63
2023/07/24 07:37:16;;;;;;;18.00;6.20;;;19.10;99.90;;;;;;5087027;28;20036;-63
2023/07/24 07:39:41;;;;;;;16.30;6.65;;;19.10;99.90;;;;;;5087919;28;20135;-63
2023/07/24 07:42:07;;;;;;;13.77;7.18;;;19.20;99.90;;;;;;5088507;28;20420;-63
2023/07/24 07:44:33;;;;;;;11.90;6.43;;;19.20;99.90;;;;;;5087075;28;20098;-63
2023/07/24 07:46:59;;;;;;;11.27;6.30;;;19.20;99.90;;;;;;5088477;28;20040;-63
2023/07/24 07:49:24;;;;;;;21.10;8.05;;;19.20;99.90;;;;;;5086826;28;20046;-63
2023/07/24 07:51:50;;;;;;;14.68;6.93;;;19.30;99.90;;;;;;5086926;28;20400;-63
2023/07/24 07:54:16;;;;;;;13.90;7.65;;;19.30;99.90;;;;;;5089335;28;20040;-63
2023/07/24 07:56:42;;;;;;;14.20;7.07;;;19.40;99.90;;;;;;5087938;28;20040;-63
2023/07/24 07:59:07;;;;;;;17.33;6.68;;;19.50;99.90;;;;;;5069895;28;20044;-63
2023/07/24 08:01:33;;;;;;;15.30;7.97;;;19.60;99.90;;;;;;5092391;28;20040;-63
2023/07/24 08:03:59;;;;;;;14.88;7.70;;;19.70;99.90;;;;;;5102889;28;20082;-63
2023/07/24 08:06:24;;;;;;;17.75;7.00;;;19.60;99.90;;;;;;5095418;28;20040;-63
2023/07/24 08:08:50;;;;;;;15.88;6.63;;;19.60;99.90;;;;;;5103148;28;20043;-63
2023/07/24 08:11:16;;;;;;;15.00;6.97;;;19.60;99.90;;;;;;5097045;28;20051;-63
2023/07/24 08:13:42;;;;;;;14.43;6.63;;;19.60;99.90;;;;;;5088541;28;20044;-63
2023/07/24 08:16:20;;;;;;;16.83;7.70;;;19.70;99.90;;;;;;5110698;28;20100;-63
2023/07/24 08:18:47;;;;;;;12.75;6.25;;;19.70;99.90;;;;;;5092126;28;20047;-63
2023/07/24 08:21:14;;;;;;;12.93;6.80;;;19.70;99.90;;;;;;5093168;28;20035;-63
2023/07/24 08:23:40;;;;;;;16.70;6.85;;;19.70;99.90;;;;;;5093243;28;20044;-63
2023/07/24 08:26:06;;;;;;;13.23;6.80;;;19.80;99.90;;;;;;5093536;28;20043;-63
2023/07/24 08:28:34;;;;;;;15.25;7.30;;;19.80;99.90;;;;;;5109114;28;20567;-63
2023/07/24 08:31:01;;;;;;;11.07;6.25;;;19.80;99.90;;;;;;5093761;28;20480;-62
2023/07/24 08:33:28;;;;;;;14.13;6.85;;;19.80;99.90;;;;;;5121676;27;20043;-62
2023/07/24 08:36:01;;;;;;;12.50;6.72;;;19.90;99.90;;;;;;5095512;28;20048;-63
2023/07/24 08:38:27;;;;;;;14.25;7.50;;;20.10;99.90;;;;;;5074604;28;20055;-63
2023/07/24 08:41:12;;;;;;;11.60;6.20;;;20.30;99.90;;;;;;5090368;28;20032;-63
2023/07/24 08:43:39;;;;;;;13.00;6.43;;;20.50;99.90;;;;;;5092646;28;20131;-63
2023/07/24 08:46:06;;;;;;;11.70;6.35;;;20.40;99.90;;;;;;5097122;28;20119;-63
2023/07/24 08:48:37;;;;;;;12.98;6.75;;;20.40;99.90;;;;;;5095285;28;20049;-63
2023/07/24 08:51:10;;;;;;;12.98;6.57;;;20.30;99.90;;;;;;5096561;28;20048;-63
2023/07/24 08:53:38;;;;;;;11.73;6.10;;;20.30;99.90;;;;;;5090969;28;20072;-63
2023/07/24 08:56:08;;;;;;;12.88;6.80;;;20.20;99.90;;;;;;5095988;28;20412;-63
2023/07/24 08:58:34;;;;;;;14.75;6.35;;;20.20;99.90;;;;;;5101039;28;20051;-63
2023/07/24 09:01:03;;;;;;;14.68;6.72;;;20.30;99.90;;;;;;5111708;28;20412;-63
2023/07/24 09:03:31;;;;;;;14.52;6.43;;;20.40;99.90;;;;;;5096447;27;20050;-62
2023/07/24 09:05:57;;;;;;;12.75;6.43;;;20.60;99.90;;;;;;5091653;28;20066;-63
2023/07/24 09:08:40;;;;;;;12.50;6.18;;;20.50;99.90;;;;;;5074952;28;20032;-63
2023/07/24 09:11:07;;;;;;;13.63;6.10;;;20.20;99.90;;;;;;5081984;28;20048;-65
2023/07/24 09:13:35;;;;;;;12.30;6.20;;;19.80;99.90;;;;;;5091698;28;20300;-65
2023/07/24 09:16:02;;;;;;;10.27;6.15;;;19.60;99.90;;;;;;5090160;28;20052;-64
2023/07/24 09:18:42;;;;;;;10.65;6.13;;;19.40;99.90;;;;;;5083623;28;20043;-64
2023/07/24 09:21:09;;;;;;;11.57;6.68;;;19.30;99.90;;;;;;5079294;28;20044;-64
2023/07/24 09:23:35;;;;;;;12.18;6.18;;;19.20;99.90;;;;;;5123378;27;20185;-64
2023/07/24 09:26:06;;;;;;;11.63;6.78;;;19.20;99.90;;;;;;5091816;28;20701;-63
2023/07/24 09:28:33;;;;;;;8.57;5.47;;;19.20;99.90;;;;;;5090053;28;20044;-63
2023/07/24 09:31:03;;;;;;;12.82;6.63;;;19.30;99.90;;;;;;5089443;28;20052;-63
2023/07/24 09:33:36;;;;;;;8.57;5.68;;;19.40;99.90;;;;;;5091137;28;20438;-63
2023/07/24 09:36:04;;;;;;;7.47;5.43;;;19.50;99.90;;;;;;5090125;28;20040;-63
2023/07/24 09:38:30;;;;;;;9.00;5.55;;;19.60;99.90;;;;;;5091108;28;20040;-63
2023/07/24 09:40:57;;;;;;;9.65;5.82;;;19.80;99.90;;;;;;5091409;28;20518;-63
2023/07/24 09:43:25;;;;;;;9.43;5.72;;;19.90;99.90;;;;;;5089487;28;20434;-63
2023/07/24 09:45:51;;;;;;;8.35;5.65;;;19.90;99.90;;;;;;5089818;28;20492;-63
2023/07/24 09:48:18;;;;;;;9.65;5.57;;;19.80;99.90;;;;;;5091175;28;20036;-64
2023/07/24 09:50:46;;;;;;;8.50;5.57;;;19.70;99.90;;;;;;5087712;28;20071;-65
2023/07/24 09:53:50;;;;;;;10.88;6.57;;;19.60;99.90;;;;;;5090149;28;20123;-65
2023/07/24 09:56:17;;;;;;;12.35;6.72;;;19.40;99.90;;;;;;5048836;28;20159;-65
2023/07/24 09:58:44;;;;;;;10.63;6.95;;;19.20;99.90;;;;;;5090267;28;20059;-65
2023/07/24 10:01:11;;;;;;;10.52;7.13;;;19.20;99.90;;;;;;5090291;28;20044;-65
2023/07/24 10:03:44;;;;;;;12.30;6.97;;;19.20;99.90;;;;;;5113149;27;20071;-65
2023/07/24 10:06:11;;;;;;;9.50;7.20;;;19.30;99.90;;;;;;5089232;28;20047;-65
2023/07/24 10:08:39;;;;;;;11.38;7.15;;;19.50;99.90;;;;;;5101748;28;20035;-65
2023/07/24 10:11:04;;;;;;;11.18;6.30;;;19.60;99.90;;;;;;5109674;28;20051;-64
2023/07/24 10:13:31;;;;;;;11.18;6.13;;;19.70;99.90;;;;;;5097520;28;20400;-64
2023/07/24 10:15:57;;;;;;;10.68;6.55;;;20.00;99.90;;;;;;5073179;28;20071;-65
2023/07/24 10:18:30;;;;;;;9.70;6.20;;;20.40;99.90;;;;;;5095516;28;20128;-65
2023/07/24 10:21:08;;;;;;;9.68;5.85;;;20.60;99.90;;;;;;5078197;28;20122;-65
2023/07/24 10:23:35;;;;;;;12.73;5.07;;;20.50;99.90;;;;;;5091312;28;20032;-65
2023/07/24 10:26:05;;;;;;;8.73;6.03;;;20.30;99.90;;;;;;5089053;28;20032;-65
2023/07/24 10:28:33;;;;;;;10.02;5.45;;;20.00;99.90;;;;;;5089670;28;20119;-65
2023/07/24 10:31:01;;;;;;;9.57;5.88;;;19.90;99.90;;;;;;5072722;28;20055;-64
2023/07/24 10:33:31;;;;;;;8.15;5.30;;;19.80;99.90;;;;;;5091180;28;20115;-64
2023/07/24 10:36:10;;;;;;;12.13;6.32;;;19.70;99.90;;;;;;5090865;28;20450;-65
2023/07/24 10:38:46;;;;;;;9.38;6.15;;;19.70;99.90;;;;;;5089214;28;20457;-64
2023/07/24 10:41:12;;;;;;;8.77;5.93;;;19.70;99.90;;;;;;5088497;28;20113;-64
2023/07/24 10:43:45;;;;;;;7.78;4.70;;;19.90;99.90;;;;;;5090871;28;20036;-65
2023/07/24 10:46:12;;;;;;;10.25;5.93;;;20.20;99.90;;;;;;5092890;28;20043;-63
2023/07/24 10:48:41;;;;;;;8.43;5.43;;;20.40;99.90;;;;;;5091837;28;20040;-63
2023/07/24 10:51:09;;;;;;;6.80;5.30;;;20.60;99.90;;;;;;5072328;28;20052;-64
2023/07/24 10:53:38;;;;;;;7.53;5.00;;;20.60;99.90;;;;;;5070863;28;20059;-63
2023/07/24 10:56:07;;;;;;;8.77;5.03;;;20.60;99.90;;;;;;5078120;28;20040;-63
2023/07/24 10:58:35;;;;;;;7.05;5.03;;;20.50;99.90;;;;;;5091795;28;20079;-63
2023/07/24 11:01:04;;;;;;;7.78;5.40;;;20.30;99.90;;;;;;5091933;28;20512;-63
2023/07/24 11:03:31;;;;;;;8.52;5.18;;;20.30;99.90;;;;;;5093001;28;20036;-64
2023/07/24 11:05:58;;;;;;;10.82;5.53;;;20.20;99.90;;;;;;5091683;28;20101;-66
2023/07/24 11:08:24;;;;;;;10.10;5.85;;;20.10;99.90;;;;;;5090781;28;20040;-64
2023/07/24 11:10:54;;;;;;;6.55;4.85;;;20.00;99.90;;;;;;5092586;28;20076;-65
2023/07/24 11:13:22;;;;;;;6.97;4.97;;;20.20;99.90;;;;;;5091748;28;20044;-64
2023/07/24 11:15:49;;;;;;;6.95;5.50;;;20.30;99.90;;;;;;5090592;28;20384;-65
2023/07/24 11:18:15;;;;;;;7.90;5.20;;;20.50;99.90;;;;;;5092860;28;20052;-65
2023/07/24 11:20:50;;;;;;;7.47;5.68;;;20.40;99.90;;;;;;5092400;28;20173;-65
2023/07/24 11:23:16;;;;;;;9.82;5.32;;;20.40;99.90;;;;;;5100060;28;20046;-64
2023/07/24 11:25:43;;;;;;;8.45;5.22;;;20.30;99.90;;;;;;5092700;28;20035;-64
2023/07/24 11:28:10;;;;;;;9.05;4.97;;;20.30;99.90;;;;;;5091556;28;20414;-64
2023/07/24 11:30:36;;;;;;;6.57;4.35;;;20.40;99.90;;;;;;5090626;28;20036;-63
2023/07/24 11:33:04;;;;;;;6.70;4.57;;;20.40;99.90;;;;;;5108807;28;20538;-64
2023/07/24 11:35:30;;;;;;;7.32;4.82;;;20.40;99.90;;;;;;5091061;28;20044;-63
2023/07/24 11:37:56;;;;;;;8.15;4.70;;;20.40;99.90;;;;;;5091098;28;20071;-65
2023/07/24 11:40:31;;;;;;;7.80;4.70;;;20.50;99.90;;;;;;5074015;28;20048;-62
2023/07/24 11:42:57;;;;;;;8.15;4.68;;;20.60;99.90;;;;;;5090236;28;20036;-63
2023/07/24 11:45:23;;;;;;;6.63;4.32;;;20.80;99.90;;;;;;5091813;28;20380;-63
2023/07/24 11:47:50;;;;;;;7.97;5.13;;;20.90;99.90;;;;;;5090857;28;20032;-63
2023/07/24 11:50:17;;;;;;;6.40;4.32;;;21.00;99.90;;;;;;5091760;28;20408;-62
2023/07/24 11:52:45;;;;;;;7.07;4.03;;;21.00;99.90;;;;;;5090586;28;20040;-63
2023/07/24 11:55:12;;;;;;;6.60;3.53;;;20.80;99.90;;;;;;5075566;28;20039;-62
2023/07/24 11:57:38;;;;;;;5.82;3.47;;;20.60;99.90;;;;;;5089489;28;20043;-62
2023/07/24 12:00:06;;;;;;;6.60;3.50;;;20.60;99.90;;;;;;5090794;28;20048;-63
2023/07/24 12:02:34;;;;;;;6.30;2.88;;;20.50;99.90;;;;;;5091858;28;20117;-62
2023/07/24 12:05:00;;;;;;;4.72;2.40;;;20.50;99.90;;;;;;5089787;28;20040;-62
2023/07/24 12:07:34;;;;;;;7.55;2.88;;;20.60;99.90;;;;;;5092387;28;20115;-63
2023/07/24 12:10:08;;;;;;;4.35;2.30;;;20.70;99.90;;;;;;5093739;28;20047;-62
2023/07/24 12:12:43;;;;;;;3.72;1.88;;;20.90;99.90;;;;;;5110241;28;20047;-62
2023/07/24 12:15:10;;;;;;;5.32;1.60;;;21.20;99.90;;;;;;5111309;28;20725;-63
2023/07/24 12:17:36;;;;;;;4.70;1.60;;;21.40;99.90;;;;;;5111765;28;20383;-63
2023/07/24 12:20:08;;;;;;;2.97;1.40;;;21.30;99.90;;;;;;5110960;28;20093;-63
2023/07/24 12:22:34;;;;;;;3.60;1.50;;;21.10;99.90;;;;;;5111089;28;20074;-63
2023/07/24 12:25:00;;;;;;;3.35;1.38;;;21.20;99.90;;;;;;5111396;28;20173;-63
2023/07/24 12:27:26;;;;;;;3.58;1.40;;;21.20;99.90;;;;;;5111139;28;20040;-63
2023/07/24 12:29:52;;;;;;;4.25;1.45;;;21.30;99.90;;;;;;5111701;28;20039;-63
2023/07/24 12:32:18;;;;;;;3.38;1.42;;;21.40;99.90;;;;;;5110661;28;20039;-64
2023/07/24 12:34:46;;;;;;;3.40;1.40;;;21.30;99.90;;;;;;5110580;28;20118;-64
2023/07/24 12:37:12;;;;;;;3.30;1.40;;;21.20;99.90;;;;;;5111116;28;20488;-64
2023/07/24 12:39:38;;;;;;;5.38;1.40;;;21.20;99.90;;;;;;5111173;28;20088;-64
2023/07/24 12:42:05;;;;;;;3.65;1.50;;;21.00;99.90;;;;;;5111760;28;20062;-64
2023/07/24 12:44:30;;;;;;;8.00;1.80;;;20.90;99.90;;;;;;5112056;28;20039;-63
2023/07/24 12:46:56;;;;;;;4.40;2.00;;;20.80;99.90;;;;;;5109918;28;20114;-64
2023/07/24 12:49:22;;;;;;;4.07;1.85;;;20.60;99.90;;;;;;5111013;28;20051;-64
2023/07/24 12:51:47;;;;;;;7.57;2.80;;;20.60;99.90;;;;;;5111370;28;20108;-64
2023/07/24 12:54:13;;;;;;;10.00;2.85;;;20.50;99.90;;;;;;5110030;28;20035;-63
2023/07/24 12:56:40;;;;;;;6.32;2.08;;;20.50;99.90;;;;;;5110601;28;20050;-64
2023/07/24 12:59:05;;;;;;;7.00;2.22;;;20.40;99.90;;;;;;5112394;28;20118;-61
2023/07/24 13:01:31;;;;;;;6.68;2.25;;;20.20;99.90;;;;;;5109836;28;20524;-62
2023/07/24 13:03:57;;;;;;;5.78;1.70;;;20.10;99.90;;;;;;5114123;28;20036;-61
2023/07/24 13:06:23;;;;;;;5.85;1.80;;;19.90;99.90;;;;;;5114507;28;20119;-63
2023/07/24 13:08:49;;;;;;;7.35;1.70;;;19.80;99.90;;;;;;5114244;28;20035;-62
2023/07/24 13:11:15;;;;;;;8.52;2.78;;;19.70;99.90;;;;;;5114407;28;20046;-62
2023/07/24 13:13:40;;;;;;;7.50;2.45;;;19.60;99.90;;;;;;5114891;28;20043;-63
2023/07/24 13:16:06;;;;;;;7.88;2.70;;;19.50;99.90;;;;;;5113527;28;20063;-62
2023/07/24 13:18:32;;;;;;;9.40;2.75;;;19.30;99.90;;;;;;5114061;28;20067;-61